Aeroboteco Virtual Airlines! Uma nuvem a frente.



 INFORMAÇÕES METEOROLÓGICAS
METAR FOR LIMC
ADDS - METARS form results

(1207 UTC 17 February 2019)
Data provider http://aviationweather.gov/metar/data/
 
METAR text: LIMC 171150Z 21003KT 130V280 CAVOK 15/02 Q1028 NOSIG
Conditions at: LIMC (MILANO/MALPENSA , IT) observed 1150 UTC 17 February 2019
Temperature: 15.0°C (59°F)
Dewpoint: 2.0°C (36°F) [RH = 41%]
Pressure (altimeter): 30.35 inches Hg (1028.0 mb)
Winds: from the SSW (210 degrees) at 3 MPH (3 knots; 1.5 m/s)
Visibility: 6 or more miles (10+ km)
Ceiling: ceiling and visibility are OK
Clouds: unknown
Weather: no significant weather observed at this time

METAR text: LIMC 171120Z 22005KT 190V260 CAVOK 14/01 Q1028 NOSIG
Conditions at: LIMC (MILANO/MALPENSA , IT) observed 1120 UTC 17 February 2019
Temperature: 14.0°C (57°F)
Dewpoint: 1.0°C (34°F) [RH = 41%]
Pressure (altimeter): 30.35 inches Hg (1028.0 mb)
Winds: from the SW (220 degrees) at 6 MPH (5 knots; 2.6 m/s)
Visibility: 6 or more miles (10+ km)
Ceiling: ceiling and visibility are OK
Clouds: unknown
Weather: no significant weather observed at this time

Forecast for: LIMC (MILANO/MALPENSA , IT)
Text: TAF LIMC 171100Z 1712/1818 VRB05KT CAVOK
Forecast period: 1200 UTC 17 February 2019 to 1800 UTC 18 February 2019
Forecast type: FROM: standard forecast or significant change
Winds: variable direction winds at 6 MPH (5 knots; 2.6 m/s)
Visibility: 6 or more miles 10+ km)
Ceiling: unknown
Clouds: missing
Weather: NSW  (no significant weather)
Text: TEMPO 1800/1808 3000 BCFG
Forecast period: 0000 to 0800 UTC 18 February 2019
Forecast type: TEMPORARY: The following changes expected for less than half the time period
Visibility: 1.86 miles (2.99 km)
Ceiling: unknown
Clouds: missing
Weather: BCFG  (patches of fog)

 MAPA DO AEROPORTO

 INFORMAÇÕES DA PISTA
Pista 17L Tamanho da pista 12861 ft Largura da pista 197 ft
Elevação da pista 745 ft Ranhura da pista 3094 ft Proa da pista 170
Pista 35R Tamanho da pista 12861 ft Largura da pista 197 ft
Elevação da pista 691 ft Ranhura da pista 0 ft Proa da pista 350
Pista 17R Tamanho da pista 12861 ft Largura da pista 197 ft
Elevação da pista 764 ft Ranhura da pista 0 ft Proa da pista 170
Pista 35L Tamanho da pista 12861 ft Largura da pista 197 ft
Elevação da pista 696 ft Ranhura da pista 1329 ft Proa da pista 350

 FREQUÊNCIAS DO AEROPORTO
Tipo APP Nome MILANO APP Frequência 132.7 MHZ
Tipo ATIS Nome ATIS Frequência 120.025 MHZ
Tipo CLD Nome CLNC DEL Frequência 120.9 MHZ
Tipo DEP Nome MILANO DEP Frequência 126.75 MHZ
Tipo GND Nome GND Frequência 121.9 MHZ
Tipo TWR Nome TWR Frequência 119 MHZ

 AUXÍLIOS DE NAVEGAÇÃO PRÓXIMOS AO AEROPORTO
Tipo VOR-DME Nome Malpensa Frequência 111200 KHZ
Tipo NDB Nome Malpensa Frequência 364 KHZ